createdAt,value
2022-08-08T00:00:50.580Z,100114.97
2022-08-08T00:02:31.107Z,100135.84
2022-08-08T00:05:22.393Z,100135.22
2022-08-08T00:08:59.176Z,100147.88
2022-08-08T00:12:09.510Z,100125.56
2022-08-08T00:14:58.725Z,100124.50
2022-08-08T00:18:01.764Z,100130.00
2022-08-08T00:20:55.148Z,100132.41
2022-08-08T00:23:42.773Z,100128.13
2022-08-08T00:26:29.096Z,100128.88
2022-08-08T00:29:45.181Z,100128.56
2022-08-08T00:32:38.771Z,100124.72
2022-08-08T00:35:51.489Z,100119.81
2022-08-08T00:38:44.358Z,100117.97
2022-08-08T00:42:32.965Z,100125.88
2022-08-08T00:45:37.644Z,100122.19
2022-08-08T00:48:30.108Z,100127.22
2022-08-08T00:51:54.765Z,100130.28
2022-08-08T00:55:52.544Z,100131.06
2022-08-08T00:58:36.655Z,100134.69
2022-08-08T01:01:39.251Z,100131.63
2022-08-08T01:05:41.739Z,100134.06
2022-08-08T01:08:12.321Z,100123.94
2022-08-08T01:10:59.938Z,100125.94
2022-08-08T01:14:04.742Z,100114.97
2022-08-08T01:17:09.562Z,100115.50
2022-08-08T01:20:02.659Z,100119.44
2022-08-08T01:23:06.277Z,100120.66
2022-08-08T01:26:18.503Z,100119.56
2022-08-08T01:29:17.817Z,100114.97
2022-08-08T01:32:41.904Z,100115.88
2022-08-08T01:35:29.826Z,100121.34
2022-08-08T01:38:37.992Z,100110.81
2022-08-08T01:41:34.366Z,100111.25
2022-08-08T01:44:18.292Z,100110.59
2022-08-08T01:48:14.473Z,100108.97
2022-08-08T01:50:29.782Z,100104.06
2022-08-08T01:54:33.113Z,100115.94
2022-08-08T01:56:48.883Z,100108.25
2022-08-08T02:00:01.788Z,100113.84
2022-08-08T02:03:54.367Z,100107.72
2022-08-08T02:06:43.638Z,100106.16
2022-08-08T02:10:03.998Z,100110.03
2022-08-08T02:13:03.333Z,100107.59
2022-08-08T02:15:54.291Z,100104.53
2022-08-08T02:18:59.523Z,100108.47
2022-08-08T02:22:28.333Z,100100.25
2022-08-08T02:25:20.516Z,100105.41
2022-08-08T02:28:06.604Z,100102.22
2022-08-08T02:30:50.134Z,100103.78
2022-08-08T02:34:08.252Z,100107.59
2022-08-08T02:37:53.554Z,100113.97
2022-08-08T02:40:45.046Z,100112.44
2022-08-08T02:44:37.276Z,100120.69
2022-08-08T02:46:53.004Z,100120.38
2022-08-08T02:50:15.340Z,100127.03
2022-08-08T02:53:17.105Z,100132.97
2022-08-08T02:56:51.737Z,100122.88
2022-08-08T03:00:26.843Z,100139.44
2022-08-08T03:03:46.070Z,100149.78
2022-08-08T03:07:19.776Z,100156.13
2022-08-08T03:10:44.591Z,100161.72
2022-08-08T03:15:58.224Z,100169.72
2022-08-08T03:16:50.986Z,100176.53
2022-08-08T03:20:08.093Z,100183.53
2022-08-08T03:23:04.497Z,100193.38
2022-08-08T03:25:36.390Z,100188.28
2022-08-08T03:28:30.265Z,100185.41
2022-08-08T03:31:13.618Z,100185.41
2022-08-08T03:33:56.795Z,100190.91
2022-08-08T03:36:30.549Z,100191.75
2022-08-08T03:39:14.540Z,100199.63
2022-08-08T03:42:11.849Z,100194.25
2022-08-08T03:44:38.750Z,100200.16
2022-08-08T03:47:19.713Z,100194.34
2022-08-08T03:50:00.793Z,100194.34
2022-08-08T03:52:35.389Z,100189.72
2022-08-08T03:55:20.109Z,100192.47
2022-08-08T03:58:36.459Z,100205.31
2022-08-08T04:01:24.441Z,100199.72
2022-08-08T04:03:59.238Z,100209.03
2022-08-08T04:06:31.091Z,100204.25
2022-08-08T04:09:11.255Z,100196.72
2022-08-08T04:11:48.360Z,100201.09
2022-08-08T04:14:36.555Z,100197.94
2022-08-08T04:17:22.568Z,100197.94
2022-08-08T04:19:56.596Z,100201.00
2022-08-08T04:22:29.707Z,100212.72
2022-08-08T04:24:59.365Z,100213.16
2022-08-08T04:28:01.770Z,100223.09
2022-08-08T04:30:19.621Z,100216.69
2022-08-08T04:32:52.003Z,100219.53
2022-08-08T04:35:23.908Z,100211.84
2022-08-08T04:37:54.651Z,100230.69
2022-08-08T04:40:35.311Z,100231.88
2022-08-08T04:43:05.571Z,100234.19
2022-08-08T04:45:41.604Z,100234.63
2022-08-08T04:48:10.964Z,100240.00
2022-08-08T04:50:46.018Z,100241.47
2022-08-08T04:54:27.444Z,100233.91
2022-08-08T04:56:10.045Z,100233.47
2022-08-08T04:58:38.350Z,100238.19
2022-08-08T05:01:11.073Z,100242.91
2022-08-08T05:04:10.408Z,100244.72
2022-08-08T05:06:39.225Z,100253.81
2022-08-08T05:09:09.533Z,100257.41
2022-08-08T05:11:41.562Z,100261.50
2022-08-08T05:14:12.760Z,100264.84
2022-08-08T05:16:52.756Z,100251.97
2022-08-08T05:20:12.686Z,100254.00
2022-08-08T05:22:14.166Z,100256.75
2022-08-08T05:24:48.068Z,100262.56
2022-08-08T05:27:19.309Z,100269.06
2022-08-08T05:29:50.286Z,100273.16
2022-08-08T05:32:24.623Z,100273.84
2022-08-08T05:35:04.649Z,100267.84
2022-08-08T05:37:52.541Z,100261.84
2022-08-08T05:40:28.095Z,100266.88
2022-08-08T05:43:39.124Z,100270.38
2022-08-08T05:46:07.591Z,100270.06
2022-08-08T05:48:41.858Z,100274.78
2022-08-08T05:51:15.841Z,100276.06
2022-08-08T05:54:29.018Z,100272.97
2022-08-08T05:56:47.634Z,100268.44
2022-08-08T06:00:00.906Z,100267.34
2022-08-08T06:02:43.681Z,100263.06
2022-08-08T06:05:34.759Z,100272.31
2022-08-08T06:08:09.684Z,100270.47
2022-08-08T06:10:42.020Z,100274.16
2022-08-08T06:13:12.689Z,100283.75
2022-08-08T06:15:51.072Z,100283.25
2022-08-08T06:18:40.217Z,100282.72
2022-08-08T06:21:11.722Z,100289.19
2022-08-08T06:24:03.325Z,100292.97
2022-08-08T06:26:45.316Z,100286.09
2022-08-08T06:30:02.719Z,100295.66
2022-08-08T06:32:53.193Z,100289.53
2022-08-08T06:36:06.772Z,100286.69
2022-08-08T06:38:19.881Z,100297.22
2022-08-08T06:40:54.429Z,100291.31
2022-08-08T06:43:34.279Z,100300.53
2022-08-08T06:46:17.907Z,100295.84
2022-08-08T06:48:55.171Z,100303.44
2022-08-08T06:51:25.243Z,100306.31
2022-08-08T06:54:03.105Z,100299.72
2022-08-08T06:56:37.108Z,100305.69
2022-08-08T06:59:09.762Z,100301.72
2022-08-08T07:02:24.369Z,100311.19
2022-08-08T07:04:58.637Z,100307.78
2022-08-08T07:07:59.845Z,100307.25
2022-08-08T07:10:48.787Z,100307.44
2022-08-08T07:13:19.117Z,100298.97
2022-08-08T07:16:04.664Z,100307.75
2022-08-08T07:19:10.122Z,100316.09
2022-08-08T07:22:05.542Z,100310.59
2022-08-08T07:24:54.313Z,100320.59
2022-08-08T07:27:27.777Z,100316.38
2022-08-08T07:30:12.104Z,100317.94
2022-08-08T07:32:43.611Z,100306.06
2022-08-08T07:35:15.731Z,100306.06
2022-08-08T07:38:04.676Z,100305.16
2022-08-08T07:41:04.798Z,100304.94
2022-08-08T07:43:38.019Z,100299.22
2022-08-08T07:46:23.111Z,100311.16
2022-08-08T07:48:53.068Z,100317.63
2022-08-08T07:51:23.042Z,100315.31
2022-08-08T07:54:26.609Z,100324.91
2022-08-08T07:57:27.254Z,100336.25
2022-08-08T08:00:17.195Z,100343.59
2022-08-08T08:03:20.866Z,100343.81
2022-08-08T08:05:56.517Z,100347.94
2022-08-08T08:08:39.357Z,100347.38
2022-08-08T08:11:34.125Z,100346.81
2022-08-08T08:14:18.078Z,100346.72
2022-08-08T08:16:50.353Z,100347.47
2022-08-08T08:19:21.111Z,100351.28
2022-08-08T08:21:57.223Z,100348.09
2022-08-08T08:24:55.453Z,100349.00
2022-08-08T08:27:25.631Z,100347.47
2022-08-08T08:29:59.465Z,100346.81
2022-08-08T08:32:36.732Z,100359.19
2022-08-08T08:35:21.386Z,100355.31
2022-08-08T08:38:17.217Z,100346.31
2022-08-08T08:40:52.025Z,100349.50
2022-08-08T08:43:26.843Z,100345.19
2022-08-08T08:46:05.508Z,100340.16
2022-08-08T08:48:35.092Z,100343.25
2022-08-08T08:51:05.410Z,100349.50
2022-08-08T08:53:56.248Z,100352.56
2022-08-08T08:56:29.414Z,100359.19
2022-08-08T08:59:05.751Z,100361.78
2022-08-08T09:01:45.373Z,100351.56
2022-08-08T09:04:31.457Z,100355.41
2022-08-08T09:07:22.851Z,100350.03
2022-08-08T09:09:58.149Z,100350.78
2022-08-08T09:12:38.296Z,100349.56
2022-08-08T09:15:07.322Z,100348.66
2022-08-08T09:17:55.298Z,100351.28
2022-08-08T09:21:56.793Z,100355.91
2022-08-08T09:23:17.595Z,100362.50
2022-08-08T09:26:02.130Z,100359.75
2022-08-08T09:28:39.579Z,100357.63
2022-08-08T09:31:42.742Z,100345.75
2022-08-08T09:34:34.102Z,100352.97
2022-08-08T09:37:57.950Z,100348.00
2022-08-08T09:40:16.108Z,100344.97
2022-08-08T09:43:16.640Z,100343.50
2022-08-08T09:46:10.974Z,100340.94
2022-08-08T09:48:42.671Z,100334.72
2022-08-08T09:51:15.064Z,100331.69
2022-08-08T09:53:59.189Z,100339.34
2022-08-08T09:56:40.067Z,100330.50
2022-08-08T09:59:50.111Z,100324.09
2022-08-08T10:02:12.947Z,100329.34
2022-08-08T10:04:48.116Z,100325.97
2022-08-08T10:07:17.470Z,100320.94
2022-08-08T10:09:59.479Z,100312.56
2022-08-08T10:12:53.140Z,100305.34
2022-08-08T10:15:25.594Z,100311.66
2022-08-08T10:18:06.545Z,100308.31
2022-08-08T10:20:57.783Z,100304.53
2022-08-08T10:23:58.719Z,100295.16
2022-08-08T10:26:52.319Z,100297.31
2022-08-08T10:29:44.122Z,100288.41
2022-08-08T10:32:40.386Z,100294.22
2022-08-08T10:36:09.538Z,100281.03
2022-08-08T10:38:14.392Z,100284.72
2022-08-08T10:40:50.415Z,100280.72
2022-08-08T10:43:18.459Z,100271.81
2022-08-08T10:45:57.269Z,100275.50
2022-08-08T10:48:56.776Z,100282.22
2022-08-08T10:51:31.086Z,100279.31
2022-08-08T10:54:02.126Z,100286.66
2022-08-08T10:56:35.486Z,100268.72
2022-08-08T10:59:09.304Z,100275.41
2022-08-08T11:01:39.475Z,100279.81
2022-08-08T11:04:12.186Z,100272.31
2022-08-08T11:06:41.666Z,100275.97
2022-08-08T11:09:21.592Z,100274.41
2022-08-08T11:12:04.946Z,100274.38
2022-08-08T11:14:58.102Z,100263.28
2022-08-08T11:17:58.212Z,100254.53
2022-08-08T11:20:29.036Z,100259.25
2022-08-08T11:22:59.756Z,100261.38
2022-08-08T11:25:53.256Z,100259.50
2022-08-08T11:28:30.903Z,100256.69
2022-08-08T11:31:03.746Z,100258.63
2022-08-08T11:33:53.210Z,100259.03
2022-08-08T11:36:27.864Z,100256.41
2022-08-08T11:38:58.058Z,100255.16
2022-08-08T11:41:33.610Z,100251.94
2022-08-08T11:44:02.636Z,100245.19
2022-08-08T11:46:34.440Z,100249.25
2022-08-08T11:49:09.278Z,100239.84
2022-08-08T11:51:40.193Z,100237.94
2022-08-08T11:54:31.923Z,100231.47
2022-08-08T11:57:27.071Z,100236.03
2022-08-08T12:00:05.433Z,100228.03
2022-08-08T12:02:54.735Z,100220.97
2022-08-08T12:05:34.934Z,100228.34
2022-08-08T12:08:04.872Z,100219.09
2022-08-08T12:10:33.838Z,100215.34
2022-08-08T12:13:07.295Z,100218.69
2022-08-08T12:15:48.316Z,100211.25
2022-08-08T12:18:21.197Z,100217.34
2022-08-08T12:20:56.662Z,100208.59
2022-08-08T12:23:43.544Z,100212.41
2022-08-08T12:26:27.217Z,100208.69
2022-08-08T12:28:58.632Z,100207.75
2022-08-08T12:31:39.121Z,100208.78
2022-08-08T12:35:01.358Z,100207.06
2022-08-08T12:37:41.065Z,100208.88
2022-08-08T12:40:22.722Z,100207.91
2022-08-08T12:42:53.050Z,100203.44
2022-08-08T12:45:57.829Z,100205.31
2022-08-08T12:48:36.530Z,100195.94
2022-08-08T12:51:11.275Z,100192.47
2022-08-08T12:53:59.765Z,100182.94
2022-08-08T12:56:36.151Z,100183.06
2022-08-08T12:59:14.805Z,100183.00
2022-08-08T13:01:49.372Z,100168.88
2022-08-08T13:04:24.630Z,100171.41
2022-08-08T13:07:04.475Z,100172.69
2022-08-08T13:09:43.012Z,100159.28
2022-08-08T13:12:44.469Z,100152.41
2022-08-08T13:15:20.292Z,100155.13
2022-08-08T13:18:07.555Z,100155.53
2022-08-08T13:20:45.913Z,100145.28
2022-08-08T13:23:41.296Z,100153.44
2022-08-08T13:26:14.940Z,100141.38
2022-08-08T13:28:45.753Z,100144.69
2022-08-08T13:31:16.311Z,100137.66
2022-08-08T13:33:50.842Z,100128.28
2022-08-08T13:36:27.694Z,100129.53
2022-08-08T13:39:00.284Z,100132.81
2022-08-08T13:41:39.614Z,100123.00
2022-08-08T13:44:19.459Z,100128.78
2022-08-08T13:46:58.485Z,100125.00
2022-08-08T13:50:37.386Z,100131.84
2022-08-08T13:52:23.014Z,100133.59
2022-08-08T13:55:06.746Z,100133.38
2022-08-08T13:57:46.389Z,100135.38
2022-08-08T14:00:24.500Z,100126.47
2022-08-08T14:03:20.103Z,100131.47
2022-08-08T14:05:57.731Z,100122.44
2022-08-08T14:08:30.415Z,100132.16
2022-08-08T14:11:02.515Z,100122.38
2022-08-08T14:13:33.644Z,100114.75
2022-08-08T14:16:16.253Z,100111.31
2022-08-08T14:19:00.623Z,100089.28
2022-08-08T14:21:48.962Z,100093.78
2022-08-08T14:24:34.319Z,100091.66
2022-08-08T14:27:07.738Z,100103.69
2022-08-08T14:29:39.129Z,100086.59
2022-08-08T14:32:11.595Z,100093.63
2022-08-08T14:34:42.652Z,100094.47
2022-08-08T14:37:12.934Z,100108.22
2022-08-08T14:40:05.763Z,100098.09
2022-08-08T14:42:54.649Z,100101.69
2022-08-08T14:45:46.978Z,100105.66
2022-08-08T14:48:34.234Z,100112.84
2022-08-08T14:51:07.401Z,100125.09
2022-08-08T14:53:55.090Z,100122.22
2022-08-08T14:56:25.977Z,100100.91
2022-08-08T14:58:55.062Z,100096.44
2022-08-08T15:01:37.298Z,100105.31
2022-08-08T15:04:11.172Z,100103.47
2022-08-08T15:06:39.250Z,100098.19
2022-08-08T15:09:11.259Z,100095.41
2022-08-08T15:11:43.145Z,100094.88
2022-08-08T15:14:15.274Z,100095.50
2022-08-08T15:16:44.473Z,100093.72
2022-08-08T15:19:15.053Z,100091.44
2022-08-08T15:21:44.739Z,100103.16
2022-08-08T15:24:15.944Z,100094.69
2022-08-08T15:26:46.640Z,100097.41
2022-08-08T15:29:22.522Z,100101.47
2022-08-08T15:32:02.916Z,100087.63
2022-08-08T15:34:41.301Z,100087.78
2022-08-08T15:37:09.683Z,100097.94
2022-08-08T15:39:39.698Z,100099.25
2022-08-08T15:42:18.206Z,100088.16
2022-08-08T15:44:59.015Z,100091.13
2022-08-08T15:47:26.566Z,100086.19
2022-08-08T15:49:54.472Z,100088.09
2022-08-08T15:52:28.727Z,100096.41
2022-08-08T15:54:56.509Z,100090.50
2022-08-08T15:57:24.300Z,100090.50
2022-08-08T16:00:06.437Z,100090.91
2022-08-08T16:02:44.651Z,100098.53
2022-08-08T16:05:20.541Z,100095.63
2022-08-08T16:07:52.892Z,100098.56
2022-08-08T16:13:10.232Z,100096.94
2022-08-08T16:13:33.530Z,100103.25
2022-08-08T16:16:13.338Z,100106.25
2022-08-08T16:18:56.502Z,100114.31
2022-08-08T16:21:30.874Z,100104.25
2022-08-08T16:24:07.574Z,100113.84
2022-08-08T16:26:42.252Z,100115.78
2022-08-08T16:29:15.630Z,100105.84
2022-08-08T16:31:48.585Z,100112.56
2022-08-08T16:34:21.929Z,100118.28
2022-08-08T16:36:52.897Z,100117.31
2022-08-08T16:39:59.497Z,100121.25
2022-08-08T16:42:18.636Z,100126.88
2022-08-08T16:44:54.603Z,100133.13
2022-08-08T16:47:40.514Z,100134.91
2022-08-08T16:50:15.112Z,100144.19
2022-08-08T16:55:03.427Z,100151.56
2022-08-08T16:55:54.208Z,100153.50
2022-08-08T16:58:26.644Z,100162.34
2022-08-08T17:00:58.830Z,100169.81
2022-08-08T17:04:00.657Z,100164.41
2022-08-08T17:06:36.796Z,100170.41
2022-08-08T17:09:04.211Z,100174.81
2022-08-08T17:11:48.518Z,100173.28
2022-08-08T17:14:27.278Z,100179.28
2022-08-08T17:17:04.953Z,100174.41
2022-08-08T17:19:40.752Z,100178.31
2022-08-08T17:22:09.707Z,100182.03
2022-08-08T17:24:37.653Z,100181.47
2022-08-08T17:27:05.689Z,100179.09
2022-08-08T17:29:36.504Z,100194.19
2022-08-08T17:32:11.109Z,100197.31
2022-08-08T17:34:59.779Z,100195.56
2022-08-08T17:37:27.557Z,100202.13
2022-08-08T17:40:10.838Z,100198.31
2022-08-08T17:42:47.251Z,100202.00
2022-08-08T17:45:22.443Z,100197.59
2022-08-08T17:47:54.092Z,100208.53
2022-08-08T17:50:24.757Z,100203.50
2022-08-08T17:52:53.855Z,100200.72
2022-08-08T17:56:03.460Z,100207.47
2022-08-08T17:58:12.390Z,100224.19
2022-08-08T18:00:41.555Z,100233.13
2022-08-08T18:03:13.696Z,100248.56
2022-08-08T18:05:48.063Z,100251.22
2022-08-08T18:08:24.704Z,100256.69
2022-08-08T18:11:15.291Z,100257.03
2022-08-08T18:13:47.772Z,100268.94
2022-08-08T18:16:20.675Z,100270.94
2022-08-08T18:18:57.338Z,100269.72
2022-08-08T18:21:59.390Z,100262.53
2022-08-08T18:24:30.186Z,100260.25
2022-08-08T18:27:00.803Z,100264.06
2022-08-08T18:29:37.165Z,100257.16
2022-08-08T18:32:08.649Z,100259.16
2022-08-08T18:34:40.283Z,100259.91
2022-08-08T18:37:17.843Z,100264.31
2022-08-08T18:39:58.477Z,100260.03
2022-08-08T18:42:26.327Z,100257.09
2022-08-08T18:44:57.427Z,100256.81
2022-08-08T18:47:27.051Z,100253.13
2022-08-08T18:49:59.971Z,100256.13
2022-08-08T18:52:30.454Z,100245.84
2022-08-08T18:55:09.846Z,100238.19
2022-08-08T18:57:44.976Z,100247.78
2022-08-08T19:00:22.701Z,100249.34
2022-08-08T19:02:55.619Z,100260.34
2022-08-08T19:05:44.103Z,100260.69
2022-08-08T19:08:24.891Z,100262.38
2022-08-08T19:11:01.600Z,100270.13
2022-08-08T19:13:53.447Z,100265.72
2022-08-08T19:16:20.666Z,100259.13
2022-08-08T19:19:02.265Z,100260.34
2022-08-08T19:21:33.449Z,100263.69
2022-08-08T19:24:05.296Z,100263.34
2022-08-08T19:26:37.727Z,100263.06
2022-08-08T19:29:06.615Z,100260.59
2022-08-08T19:31:34.980Z,100267.66
2022-08-08T19:34:36.787Z,100264.28
2022-08-08T19:36:58.981Z,100260.28
2022-08-08T19:39:34.996Z,100263.03
2022-08-08T19:42:06.761Z,100270.53
2022-08-08T19:44:43.436Z,100263.19
2022-08-08T19:47:15.752Z,100266.44
2022-08-08T19:50:00.310Z,100261.84
2022-08-08T19:52:34.417Z,100258.59
2022-08-08T19:55:12.745Z,100257.81
2022-08-08T19:57:45.667Z,100262.44
2022-08-08T20:00:28.995Z,100255.69
2022-08-08T20:03:14.708Z,100259.72
2022-08-08T20:06:14.518Z,100253.88
2022-08-08T20:08:40.286Z,100245.91
2022-08-08T20:11:14.791Z,100249.88
2022-08-08T20:14:12.683Z,100242.84
2022-08-08T20:16:40.437Z,100240.50
2022-08-08T20:19:09.769Z,100250.44
2022-08-08T20:21:38.548Z,100247.25
2022-08-08T20:24:07.739Z,100253.06
2022-08-08T20:26:38.489Z,100261.59
2022-08-08T20:29:11.082Z,100260.75
2022-08-08T20:31:47.343Z,100263.50
2022-08-08T20:34:31.909Z,100261.94
2022-08-08T20:37:03.301Z,100265.66
2022-08-08T20:39:39.468Z,100260.69
2022-08-08T20:42:28.511Z,100267.00
2022-08-08T20:44:58.769Z,100266.56
2022-08-08T20:47:26.837Z,100255.28
2022-08-08T20:50:05.571Z,100259.63
2022-08-08T20:52:33.223Z,100252.59
2022-08-08T20:55:01.661Z,100252.59
2022-08-08T20:57:43.930Z,100250.91
2022-08-08T21:00:15.869Z,100251.97
2022-08-08T21:02:48.478Z,100244.94
2022-08-08T21:05:16.570Z,100245.06
2022-08-08T21:08:33.305Z,100244.41
2022-08-08T21:10:33.592Z,100231.88
2022-08-08T21:13:01.145Z,100232.47
2022-08-08T21:16:06.088Z,100218.06
2022-08-08T21:18:17.930Z,100214.53
2022-08-08T21:20:50.642Z,100203.66
2022-08-08T21:23:19.128Z,100202.31
2022-08-08T21:25:54.755Z,100199.13
2022-08-08T21:28:35.975Z,100208.75
2022-08-08T21:31:22.982Z,100207.53
2022-08-08T21:33:55.024Z,100201.78
2022-08-08T21:36:28.882Z,100205.63
2022-08-08T21:38:58.365Z,100211.00
2022-08-08T21:41:38.078Z,100220.19
2022-08-08T21:44:12.091Z,100240.84
2022-08-08T21:48:07.085Z,100239.91
2022-08-08T21:49:30.825Z,100253.53
2022-08-08T21:54:31.175Z,100254.19
2022-08-08T21:55:02.497Z,100265.50
2022-08-08T21:57:42.492Z,100268.56
2022-08-08T22:00:14.817Z,100280.47
2022-08-08T22:02:45.098Z,100287.66
2022-08-08T22:05:14.764Z,100280.91
2022-08-08T22:07:47.384Z,100290.78
2022-08-08T22:10:32.253Z,100304.47
2022-08-08T22:13:17.658Z,100304.34
2022-08-08T22:15:59.088Z,100311.63
2022-08-08T22:18:34.341Z,100318.59
2022-08-08T22:21:14.371Z,100323.13
2022-08-08T22:23:52.192Z,100330.75
2022-08-08T22:26:28.872Z,100331.09
2022-08-08T22:29:13.254Z,100345.81
2022-08-08T22:32:02.407Z,100339.50
2022-08-08T22:34:39.235Z,100339.16
2022-08-08T22:37:15.074Z,100349.06
2022-08-08T22:40:01.381Z,100361.69
2022-08-08T22:42:31.861Z,100371.94
2022-08-08T22:45:12.419Z,100376.00
2022-08-08T22:47:47.045Z,100376.47
2022-08-08T22:50:25.767Z,100382.84
2022-08-08T22:54:33.781Z,100387.00
2022-08-08T22:55:58.034Z,100388.22
2022-08-08T22:58:33.298Z,100379.97
2022-08-08T23:02:03.002Z,100381.97
2022-08-08T23:03:54.991Z,100392.19
2022-08-08T23:06:25.710Z,100390.53
2022-08-08T23:09:00.027Z,100383.38
2022-08-08T23:11:30.791Z,100386.13
2022-08-08T23:14:20.527Z,100390.19
2022-08-08T23:16:54.840Z,100396.56
2022-08-08T23:19:31.073Z,100391.50
2022-08-08T23:22:06.532Z,100388.00
2022-08-08T23:24:41.356Z,100403.72
2022-08-08T23:27:37.931Z,100398.22
2022-08-08T23:30:03.045Z,100403.06
2022-08-08T23:32:32.036Z,100408.66
2022-08-08T23:35:00.931Z,100413.41
2022-08-08T23:37:54.276Z,100424.72
2022-08-08T23:40:22.085Z,100419.00
2022-08-08T23:42:51.518Z,100423.38
2022-08-08T23:49:02.240Z,100426.13
2022-08-08T23:49:05.982Z,100422.63
2022-08-08T23:50:57.456Z,100420.31
2022-08-08T23:54:04.717Z,100418.75
2022-08-08T23:56:13.796Z,100430.09
2022-08-08T23:58:52.030Z,100429.38
